METAR Data
IDs: Format: Raw Decoded Include TAF

Data at: 1502 UTC 18 Aug 2019

PAJN 181453Z VRB04KT 10SM FEW090 13/M06 A2988 RMK AO2 SLP119 T01331061 50000
PAJN 181353Z 03013G20KT 340V110 10SM FEW095 FEW300 14/M06 A2988 RMK AO2 SLP119 T01391061
PAJN 181253Z VRB05G14KT 10SM FEW095 14/M06 A2988 RMK AO2 SLP118 T01391061
PAJN 181153Z COR 10SM FEW095 14/M07 A2988 RMK AO2 SLP118 70085 T01441067 10167 20144 51007
PAJN 181053Z 04011G22KT 360V070 10SM FEW095 14/M07 A2988 RMK AO2 PK WND 36032/1016 SLP118 T01441067
PAJN 180953Z 04009G20KT 330V090 10SM FEW100 15/M06 A2988 RMK PK WND 33030/0927 SLP117 T01501061 VIA AUTODIAL
PAJN 180853Z COR 36014G23KT 10SM FEW100 15/M06 A2986 RMK SLP111 T01501056 401780133 51014 VIA AUTODIAL
PAJN 180753Z 35015G26KT 10SM FEW100 16/M06 A2985 RMK AO2 PK WND 05034/0731 SLP107 T01561056
PAJN 180653Z 02013G27KT 350V070 10SM FEW100 16/M06 A2984 RMK AO2 PK WND 03027/0651 SLP103 T01611056
PAJN 180553Z 34015G26KT 290V020 10SM FEW100 SCT150 17/M04 A2982 RMK AO2 PK WND 34026/0546 SLP097 T01671044 10178 20139 52013
PAJN 180453Z 10SM FEW100 SCT130 SCT150 17/M03 A2981 RMK AO2 PK WND 32026/0433 SLP093 T01721033
PAJN 180353Z 34017G29KT 10SM SCT090 BKN130 BKN150 18/M01 A2979 RMK AO2 PK WND 33031/0312 SLP087 T01781011
PAJN 180253Z 10SM SCT090 BKN130 OVC150 17/00 A2978 RMK AO2 PK WND 34030/0249 SLP084 THN SPTS INOVC T01720000 53014
PAJN 180153Z 04007KT 360V090 10SM FEW007 FEW085 BKN120 OVC130 16/05 A2976 RMK SLP076 T01560050 VIA AUTODIAL
PAJN 180053Z 06009G18KT 10SM FEW005 FEW050 OVC120 16/06 A2975 RMK AO2 SLP074 T01610056
PAJN 172353Z 24004KT 10SM FEW005 FEW050 OVC120 16/13 A2974 RMK AO2 RAE15 SLP070 THN OVC LYR P0000 60005 T01560128 10156 20133 55002
PAJN 172253Z 25005KT 10SM -RA FEW005 SCT065 OVC095 15/13 A2974 RMK RAB43 SLP069 P0000 T01500128 VIA AUTODIAL
PAJN 172153Z 27005KT 10SM FEW005 SCT055 OVC110 15/12 A2974 RMK AO2 SLP069 SUN DMLY VSB T01500122
PAJN 172053Z 00000KT 10SM FEW002 FEW009 OVC080 14/12 A2974 RMK AO2 RAB05E49 SLP072 P0000 60005 T01390122 58005
PAJN 171953Z 00000KT 10SM FEW002 FEW009 OVC075 14/12 A2975 RMK RAE41 SLP074 P0001 T01390122 VIA AUTODIAL
PAJN 171853Z 23008KT 10SM -RA FEW001 FEW018 OVC065 14/13 A2976 RMK AO2 SLP077 VIS LWR N P0004 T01390128
PAJN 171840Z 25007KT 10SM -RA FEW002 FEW008 OVC075 14/13 A2976 RMK AO2 P0003 T01390128
PAJN 171753Z 29009KT 9SM -RA FEW004 FEW013 OVC075 13/12 A2976 RMK AO2 SLP077 VIS HYR N P0008 60080 T01330122 10139 20133 55008
PAJN 171737Z 29008KT 10SM -RA FEW004 FEW013 OVC075 13/12 A2976 RMK AO2 VIS HYR N P0007 T01330122
PAJN 171724Z COR 07004KT 3SM RA BR FEW003 SCT014 OVC065 13/13 A2977
PAJN 171706Z 070004KT 3SM RA BR FEW003 SCT014 OVC065 13/13 RMK VIS HIGHER NORTH SFC VIS 6SM
PAJN 171653Z 08005KT 2SM +RA BR FEW002 BKN009 OVC036 13/13 A2975 RMK AO2 SLP075 P0024 T01330128
PAJN 171553Z 09007KT 2SM RA BR FEW002 BKN007 OVC024 13/13 A2977 RMK AO2 SFC VIS 2 1/2 SLP080 P0014 T01330128
PAJN 171453Z 06007KT 2 1/2SM RA BR FEW004 SCT015 OVC024 13/13 A2978 RMK AO2 SLP085 P0013 60034 T01330128 56026
PAJN 171435Z 06007KT 2 1/2SM RA BR FEW004 SCT015 OVC024 13/13 A2979 RMK AO2 P0009 T01330128
PAJN 171408Z 06007KT 2 1/2SM -RA BR FEW006 BKN012 OVC027 13/13 A2980 RMK AO2 P0003 T01330128
PAJN 171353Z 06006KT 3SM RA BR FEW006 SCT019 OVC027 14/13 A2980 RMK AO2 SLP092 P0014 T01390133
PAJN 171343Z 06006KT 3SM RA BR FEW006 BKN013 OVC025 14/13 A2981 RMK AO2 P0012 T01390133
PAJN 171306Z 09006KT 4SM RA BR FEW006 BKN016 OVC022 14/13 A2982 RMK AO2 P0002 T01390133
PAJN 171253Z 08005KT 4SM -RA BR FEW006 BKN010 OVC021 14/13 A2982 RMK AO2 SLP099 P0007 T01390133
PAJN 171153Z 10008KT 7SM -RA SCT006 BKN021 OVC032 14/13 A2986 RMK AO2 SLP111 P0005 60007 70007 T01390133 10161 20139 56033
PAJN 171053Z 09005KT 8SM -RA FEW008 BKN026 OVC032 14/13 A2989 RMK AO2 SLP121 P0002 T01390133
PAJN 171027Z 10007KT 9SM -RA FEW008 BKN026 OVC032 14/13 A2990 RMK AO2 P0001 T01390133
PAJN 170953Z 09006KT 7SM -RA SCT026 OVC032 14/13 A2992 RMK SLP131 P0000 T01390133 VIA AUTODIAL
PAJN 170939Z 10008KT 10SM -RA SCT026 OVC032 14/13 A2993 RMK AO2 P0000 T01390133
PAJN 170853Z 07006KT 9SM -RA BKN026 OVC036 14/13 A2995 RMK AO2 RAB41 SLP143 PCPN VRY LGT P0000 60000 T01440133 402110111 56017
PAJN 170811Z 08007KT 10SM BKN030 OVC036 14/13 A2996 RMK AO2 T01440133
PAJN 170753Z 05007KT 10SM BKN028 OVC036 15/13 A2997 RMK AO2 SLP147 T01500133
PAJN 170746Z 06004KT 10SM BKN028 OVC034 15/13 A2997 RMK AO2 T01500133
PAJN 170653Z 07005KT 10SM FEW029 BKN035 OVC049 15/13 A2998 RMK AO2 SLP153 T01500133
PAJN 170553Z 08007KT 10SM BKN034 OVC045 16/13 A3000 RMK AO2 SLP160 60000 T01610128 10200 20161 56015
PAJN 170453Z 08005KT 10SM BKN031 OVC043 17/13 A3001 RMK AO2 SLP163 T01720128
PAJN 170353Z 10005KT 10SM BKN031 OVC055 18/13 A3003 RMK AO2 RAB03E21 SLP169 P0000 T01830128